createdAt,value
2019-03-06T00:00:29.914Z,0
2019-03-06T00:01:40.590Z,0
2019-03-06T00:02:50.724Z,0
2019-03-06T00:04:00.844Z,0
2019-03-06T00:05:10.954Z,0
2019-03-06T00:06:24.088Z,0
2019-03-06T00:07:34.239Z,0
2019-03-06T00:08:44.344Z,0
2019-03-06T00:09:54.711Z,0
2019-03-06T00:11:05.522Z,0
2019-03-06T00:12:16.132Z,0
2019-03-06T00:13:26.427Z,0
2019-03-06T00:14:36.525Z,0
2019-03-06T00:15:46.657Z,0
2019-03-06T00:16:56.839Z,0
2019-03-06T00:18:06.954Z,0
2019-03-06T00:19:17.075Z,0
2019-03-06T00:20:27.192Z,0
2019-03-06T00:21:37.307Z,0
2019-03-06T00:22:47.531Z,0
2019-03-06T00:23:57.644Z,0
2019-03-06T00:25:07.766Z,0
2019-03-06T00:26:17.909Z,0
2019-03-06T00:27:28.030Z,0
2019-03-06T00:28:38.148Z,0
2019-03-06T00:29:48.296Z,0
2019-03-06T00:30:58.420Z,0
2019-03-06T00:32:08.431Z,0
2019-03-06T00:33:18.565Z,0
2019-03-06T00:34:28.740Z,0
2019-03-06T00:35:38.879Z,0
2019-03-06T00:36:49.064Z,0
2019-03-06T00:37:59.225Z,0
2019-03-06T00:39:09.375Z,0
2019-03-06T00:40:19.517Z,0
2019-03-06T00:41:29.897Z,0
2019-03-06T00:42:41.047Z,0
2019-03-06T00:43:51.330Z,0
2019-03-06T00:45:01.548Z,0
2019-03-06T00:46:11.705Z,0
2019-03-06T00:47:21.841Z,0
2019-03-06T00:48:31.977Z,0
2019-03-06T00:49:43.533Z,0
2019-03-06T00:50:53.685Z,0
2019-03-06T00:52:03.969Z,0
2019-03-06T00:53:14.095Z,0
2019-03-06T00:54:24.216Z,0
2019-03-06T00:55:34.336Z,0
2019-03-06T00:56:44.464Z,0
2019-03-06T00:57:54.569Z,0
2019-03-06T00:59:04.667Z,0
2019-03-06T01:00:14.553Z,0
2019-03-06T01:01:24.684Z,0
2019-03-06T01:02:34.801Z,0
2019-03-06T01:03:44.997Z,0
2019-03-06T01:04:55.137Z,0
2019-03-06T01:06:05.261Z,0
2019-03-06T01:07:15.423Z,0
2019-03-06T01:08:25.544Z,0
2019-03-06T01:09:35.683Z,0
2019-03-06T01:10:45.825Z,0
2019-03-06T01:11:56.162Z,0
2019-03-06T01:13:07.051Z,0
2019-03-06T01:14:17.715Z,0
2019-03-06T01:15:28.021Z,0
2019-03-06T01:16:38.150Z,0
2019-03-06T01:17:48.029Z,0
2019-03-06T01:18:58.160Z,0
2019-03-06T01:20:08.269Z,0
2019-03-06T01:21:18.378Z,0
2019-03-06T01:22:28.488Z,0
2019-03-06T01:23:38.624Z,0
2019-03-06T01:24:48.382Z,0
2019-03-06T01:25:58.235Z,0
2019-03-06T01:27:08.359Z,0
2019-03-06T01:28:18.462Z,0
2019-03-06T01:29:28.567Z,0
2019-03-06T01:30:38.685Z,0
2019-03-06T01:31:48.799Z,0
2019-03-06T01:33:00.666Z,0
2019-03-06T01:34:10.776Z,0
2019-03-06T01:35:20.902Z,0
2019-03-06T01:36:31.010Z,0
2019-03-06T01:37:41.133Z,0
2019-03-06T01:38:51.295Z,0
2019-03-06T01:40:01.429Z,0
2019-03-06T01:41:11.538Z,0
2019-03-06T01:42:21.870Z,0
2019-03-06T01:43:32.671Z,0
2019-03-06T01:44:43.091Z,0
2019-03-06T01:45:53.354Z,0
2019-03-06T01:47:03.203Z,0
2019-03-06T01:48:13.328Z,0
2019-03-06T01:49:23.439Z,0
2019-03-06T01:50:33.561Z,0
2019-03-06T01:51:43.675Z,0
2019-03-06T01:52:53.830Z,0
2019-03-06T01:54:03.938Z,0
2019-03-06T01:55:14.047Z,0
2019-03-06T01:56:24.164Z,0
2019-03-06T01:57:34.278Z,0
2019-03-06T01:58:44.404Z,0
2019-03-06T01:59:54.511Z,0
2019-03-06T02:01:04.658Z,0
2019-03-06T02:02:14.791Z,0
2019-03-06T02:03:24.662Z,0
2019-03-06T02:04:34.784Z,0
2019-03-06T02:05:44.894Z,0
2019-03-06T02:06:55.008Z,0
2019-03-06T02:08:05.356Z,0
2019-03-06T02:09:15.473Z,0
2019-03-06T02:10:25.586Z,0
2019-03-06T02:11:35.706Z,0
2019-03-06T02:12:45.873Z,0
2019-03-06T02:13:56.086Z,0
2019-03-06T02:15:06.699Z,0
2019-03-06T02:16:17.558Z,0
2019-03-06T02:17:27.922Z,0
2019-03-06T02:18:38.036Z,0
2019-03-06T02:19:48.172Z,0
2019-03-06T02:20:58.293Z,0
2019-03-06T02:22:08.397Z,0
2019-03-06T02:23:18.533Z,0
2019-03-06T02:24:28.655Z,0
2019-03-06T02:25:38.758Z,0
2019-03-06T02:26:48.861Z,0
2019-03-06T02:27:58.957Z,0
2019-03-06T02:29:09.080Z,0
2019-03-06T02:30:19.188Z,0
2019-03-06T02:31:29.308Z,0
2019-03-06T02:32:39.451Z,0
2019-03-06T02:33:49.318Z,0
2019-03-06T02:34:59.441Z,0
2019-03-06T02:36:09.641Z,0
2019-03-06T02:37:19.768Z,0
2019-03-06T02:38:29.891Z,0
2019-03-06T02:39:40.000Z,0
2019-03-06T02:40:50.131Z,0
2019-03-06T02:42:00.268Z,0
2019-03-06T02:43:10.392Z,0
2019-03-06T02:44:20.513Z,0
2019-03-06T02:45:30.640Z,0
2019-03-06T02:46:40.531Z,0
2019-03-06T02:47:50.665Z,0
2019-03-06T02:49:01.132Z,0
2019-03-06T02:50:11.972Z,0
2019-03-06T02:51:22.739Z,0
2019-03-06T02:52:33.250Z,0
2019-03-06T02:53:43.124Z,0
2019-03-06T02:54:53.244Z,0
2019-03-06T02:56:03.369Z,0
2019-03-06T02:57:13.493Z,0
2019-03-06T02:58:23.626Z,0
2019-03-06T02:59:33.407Z,0
2019-03-06T03:00:43.529Z,0
2019-03-06T03:01:53.701Z,0
2019-03-06T03:03:03.853Z,0
2019-03-06T03:04:14.003Z,0
2019-03-06T03:05:23.889Z,0
2019-03-06T03:06:34.036Z,0
2019-03-06T03:07:44.149Z,0
2019-03-06T03:08:54.265Z,0
2019-03-06T03:10:04.387Z,0
2019-03-06T03:11:14.518Z,0
2019-03-06T03:12:24.631Z,0
2019-03-06T03:13:34.730Z,0
2019-03-06T03:14:44.845Z,0
2019-03-06T03:15:54.730Z,0
2019-03-06T03:17:04.874Z,0
2019-03-06T03:18:15.026Z,0
2019-03-06T03:19:25.159Z,0
2019-03-06T03:20:35.338Z,0
2019-03-06T03:21:45.507Z,0
2019-03-06T03:22:55.617Z,0
2019-03-06T03:24:06.032Z,0
2019-03-06T03:25:16.826Z,0
2019-03-06T03:26:27.652Z,0
2019-03-06T03:27:37.877Z,0
2019-03-06T03:28:47.992Z,0
2019-03-06T03:29:58.130Z,0
2019-03-06T03:31:08.565Z,0
2019-03-06T03:32:18.729Z,0
2019-03-06T03:33:28.867Z,0
2019-03-06T03:34:39.010Z,0
2019-03-06T03:35:49.126Z,0
2019-03-06T03:36:59.257Z,0
2019-03-06T03:38:09.393Z,0
2019-03-06T03:39:19.136Z,0
2019-03-06T03:40:28.891Z,0
2019-03-06T03:41:39.010Z,0
2019-03-06T03:42:49.143Z,0
2019-03-06T03:43:59.283Z,0
2019-03-06T03:45:09.415Z,0
2019-03-06T03:46:19.626Z,0
2019-03-06T03:47:29.741Z,0
2019-03-06T03:48:39.887Z,0
2019-03-06T03:49:49.656Z,0
2019-03-06T03:50:59.784Z,0
2019-03-06T03:52:09.912Z,0
2019-03-06T03:53:20.042Z,0
2019-03-06T03:54:29.957Z,0
2019-03-06T03:55:40.079Z,0
2019-03-06T03:56:50.203Z,0
2019-03-06T03:58:00.073Z,0
2019-03-06T03:59:10.201Z,0
2019-03-06T04:00:20.344Z,0
2019-03-06T04:01:30.819Z,0
2019-03-06T04:02:41.521Z,0
2019-03-06T04:03:52.364Z,0
2019-03-06T04:05:02.878Z,0
2019-03-06T04:06:13.070Z,0
2019-03-06T04:07:23.178Z,0
2019-03-06T04:08:33.309Z,0
2019-03-06T04:09:43.459Z,0
2019-03-06T04:10:53.601Z,0
2019-03-06T04:12:03.729Z,0
2019-03-06T04:13:13.861Z,0
2019-03-06T04:14:23.765Z,0
2019-03-06T04:15:33.902Z,0
2019-03-06T04:16:43.661Z,0
2019-03-06T04:17:53.781Z,0
2019-03-06T04:19:03.898Z,0
2019-03-06T04:20:14.031Z,0
2019-03-06T04:21:23.911Z,0
2019-03-06T04:22:34.033Z,0
2019-03-06T04:23:44.165Z,0
2019-03-06T04:24:54.280Z,0
2019-03-06T04:26:04.422Z,0
2019-03-06T04:27:14.555Z,0
2019-03-06T04:28:24.667Z,0
2019-03-06T04:29:35.876Z,0
2019-03-06T04:30:45.989Z,0
2019-03-06T04:31:56.096Z,0
2019-03-06T04:33:06.232Z,0
2019-03-06T04:34:16.393Z,0
2019-03-06T04:35:26.524Z,0
2019-03-06T04:36:36.647Z,0
2019-03-06T04:37:46.927Z,0
2019-03-06T04:38:57.643Z,0
2019-03-06T04:40:08.325Z,0
2019-03-06T04:41:18.677Z,0
2019-03-06T04:42:28.793Z,0
2019-03-06T04:43:38.948Z,0
2019-03-06T04:44:49.058Z,0
2019-03-06T04:45:59.166Z,0
2019-03-06T04:47:09.279Z,0
2019-03-06T04:48:19.390Z,0
2019-03-06T04:49:29.523Z,0
2019-03-06T04:50:39.643Z,0
2019-03-06T04:51:49.755Z,0
2019-03-06T04:53:00.843Z,0
2019-03-06T04:54:10.965Z,0
2019-03-06T04:55:21.074Z,0
2019-03-06T04:56:30.927Z,0
2019-03-06T04:57:41.032Z,0
2019-03-06T04:58:51.157Z,0
2019-03-06T05:00:01.294Z,0
2019-03-06T05:01:11.430Z,0
2019-03-06T05:02:21.540Z,0
2019-03-06T05:03:31.664Z,0
2019-03-06T05:04:41.788Z,0
2019-03-06T05:05:51.683Z,0
2019-03-06T05:07:01.794Z,0
2019-03-06T05:08:13.061Z,0
2019-03-06T05:09:22.921Z,0
2019-03-06T05:10:33.292Z,0
2019-03-06T05:11:44.171Z,0
2019-03-06T05:12:54.976Z,0
2019-03-06T05:14:05.285Z,0
2019-03-06T05:15:15.404Z,0
2019-03-06T05:16:25.525Z,0
2019-03-06T05:17:35.649Z,0
2019-03-06T05:18:47.711Z,4
2019-03-06T05:19:57.459Z,0
2019-03-06T05:21:07.577Z,0
2019-03-06T05:22:17.700Z,0
2019-03-06T05:23:27.825Z,4
2019-03-06T05:24:37.949Z,4
2019-03-06T05:25:48.089Z,4
2019-03-06T05:26:58.200Z,4
2019-03-06T05:28:08.335Z,8
2019-03-06T05:29:18.447Z,8
2019-03-06T05:30:28.585Z,8
2019-03-06T05:31:38.706Z,8
2019-03-06T05:32:48.825Z,12
2019-03-06T05:33:58.949Z,12
2019-03-06T05:35:09.124Z,20
2019-03-06T05:36:19.250Z,24
2019-03-06T05:37:29.373Z,28
2019-03-06T05:38:39.511Z,36
2019-03-06T05:39:49.639Z,44
2019-03-06T05:40:59.540Z,52
2019-03-06T05:42:09.696Z,60
2019-03-06T05:43:20.199Z,68
2019-03-06T05:44:30.836Z,72
2019-03-06T05:45:41.155Z,72
2019-03-06T05:46:51.285Z,80
2019-03-06T05:48:01.396Z,92
2019-03-06T05:49:11.541Z,100
2019-03-06T05:50:22.901Z,112
2019-03-06T05:51:33.032Z,124
2019-03-06T05:52:43.188Z,136
2019-03-06T05:53:53.332Z,148
2019-03-06T05:55:03.453Z,160
2019-03-06T05:56:14.558Z,172
2019-03-06T05:57:24.700Z,184
2019-03-06T05:58:34.833Z,204
2019-03-06T05:59:44.955Z,228
2019-03-06T06:00:55.082Z,244
2019-03-06T06:02:05.189Z,264
2019-03-06T06:03:15.310Z,284
2019-03-06T06:04:25.425Z,308
2019-03-06T06:05:35.550Z,328
2019-03-06T06:06:45.690Z,348
2019-03-06T06:07:55.832Z,372
2019-03-06T06:09:05.962Z,388
2019-03-06T06:10:16.075Z,396
2019-03-06T06:11:26.481Z,400
2019-03-06T06:12:37.403Z,416
2019-03-06T06:13:48.129Z,436
2019-03-06T06:14:58.393Z,468
2019-03-06T06:16:08.520Z,504
2019-03-06T06:17:18.648Z,548
2019-03-06T06:18:28.404Z,604
2019-03-06T06:19:38.521Z,664
2019-03-06T06:20:48.630Z,736
2019-03-06T06:21:58.796Z,808
2019-03-06T06:23:08.655Z,876
2019-03-06T06:24:18.777Z,952
2019-03-06T06:25:29.000Z,1028
2019-03-06T06:26:39.148Z,1108
2019-03-06T06:27:49.277Z,1188
2019-03-06T06:28:59.394Z,1276
2019-03-06T06:30:09.514Z,1368
2019-03-06T06:31:19.633Z,1476
2019-03-06T06:32:29.756Z,1600
2019-03-06T06:33:40.784Z,1736
2019-03-06T06:34:50.914Z,1860
2019-03-06T06:36:00.772Z,1972
2019-03-06T06:37:10.893Z,2076
2019-03-06T06:38:20.999Z,2144
2019-03-06T06:39:31.119Z,2196
2019-03-06T06:40:43.030Z,2228
2019-03-06T06:41:53.187Z,2252
2019-03-06T06:43:03.640Z,2252
2019-03-06T06:44:14.441Z,2264
2019-03-06T06:45:25.114Z,2284
2019-03-06T06:46:35.414Z,2288
2019-03-06T06:47:45.561Z,2268
2019-03-06T06:48:55.678Z,2244
2019-03-06T06:50:06.031Z,2236
2019-03-06T06:51:16.142Z,2208
2019-03-06T06:52:26.255Z,2140
2019-03-06T06:53:36.358Z,2104
2019-03-06T06:54:45.967Z,2112
2019-03-06T06:55:56.091Z,2140
2019-03-06T06:57:06.217Z,2176
2019-03-06T06:58:16.332Z,2204
2019-03-06T06:59:26.474Z,2216
2019-03-06T07:00:36.583Z,2232
2019-03-06T07:01:46.698Z,2280
2019-03-06T07:02:56.828Z,2324
2019-03-06T07:04:06.892Z,2416
2019-03-06T07:05:16.743Z,2532
2019-03-06T07:06:26.617Z,2648
2019-03-06T07:07:36.929Z,2748
2019-03-06T07:08:47.077Z,2876
2019-03-06T07:09:57.222Z,3028
2019-03-06T07:11:07.346Z,3160
2019-03-06T07:12:17.740Z,3292
2019-03-06T07:13:28.114Z,3424
2019-03-06T07:14:38.811Z,3560
2019-03-06T07:15:49.120Z,3660
2019-03-06T07:17:00.060Z,3820
2019-03-06T07:18:10.166Z,3984
2019-03-06T07:19:20.280Z,4148
2019-03-06T07:20:30.390Z,4284
2019-03-06T07:21:40.520Z,4400
2019-03-06T07:22:50.651Z,4500
2019-03-06T07:24:00.804Z,4592
2019-03-06T07:25:10.695Z,4664
2019-03-06T07:26:20.830Z,4680
2019-03-06T07:27:30.954Z,4700
2019-03-06T07:28:41.074Z,4776
2019-03-06T07:29:51.197Z,4840
2019-03-06T07:31:01.325Z,4984
2019-03-06T07:32:11.436Z,5064
2019-03-06T07:33:21.554Z,5148
2019-03-06T07:34:31.674Z,5296
2019-03-06T07:35:41.888Z,5408
2019-03-06T07:36:52.015Z,5576
2019-03-06T07:38:02.163Z,5772
2019-03-06T07:39:12.289Z,6016
2019-03-06T07:40:22.394Z,6152
2019-03-06T07:41:33.156Z,6368
2019-03-06T07:42:43.683Z,7664
2019-03-06T07:43:53.991Z,10388
2019-03-06T07:45:04.107Z,12768
2019-03-06T07:46:14.244Z,14336
2019-03-06T07:47:24.367Z,15392
2019-03-06T07:48:34.514Z,15904
2019-03-06T07:49:52.264Z,16544
2019-03-06T07:51:02.407Z,16352
2019-03-06T07:52:12.293Z,16480
2019-03-06T07:53:22.424Z,16608
2019-03-06T07:54:32.539Z,17216
2019-03-06T07:55:42.679Z,17056
2019-03-06T07:56:52.840Z,18304
2019-03-06T07:58:02.970Z,18016
2019-03-06T07:59:13.106Z,16256
2019-03-06T08:00:22.970Z,15520
2019-03-06T08:01:33.082Z,14848
2019-03-06T08:02:43.201Z,14240
2019-03-06T08:03:53.343Z,14048
2019-03-06T08:05:03.779Z,14976
2019-03-06T08:06:14.689Z,15264
2019-03-06T08:07:25.376Z,14656
2019-03-06T08:08:35.607Z,12768
2019-03-06T08:09:45.749Z,15584
2019-03-06T08:10:55.879Z,13216
2019-03-06T08:12:06.014Z,13728
2019-03-06T08:13:16.145Z,13152
2019-03-06T08:14:29.649Z,16576
2019-03-06T08:15:39.808Z,16480
2019-03-06T08:16:49.949Z,16672
2019-03-06T08:18:00.088Z,16480
2019-03-06T08:19:10.241Z,17024
2019-03-06T08:20:20.103Z,18336
2019-03-06T08:21:30.226Z,19168
2019-03-06T08:22:40.414Z,19008
2019-03-06T08:23:51.179Z,18368
2019-03-06T08:25:01.326Z,16640
2019-03-06T08:26:11.460Z,19616
2019-03-06T08:27:21.565Z,19072
2019-03-06T08:28:31.442Z,17280
2019-03-06T08:29:41.568Z,17344
2019-03-06T08:30:51.463Z,18048
2019-03-06T08:32:01.350Z,18816
2019-03-06T08:33:20.622Z,18944
2019-03-06T08:34:30.763Z,19488
2019-03-06T08:35:40.899Z,19296
2019-03-06T08:36:50.526Z,19168
2019-03-06T08:38:00.677Z,18720
2019-03-06T08:39:10.794Z,19264
2019-03-06T08:40:20.944Z,19936
2019-03-06T08:41:31.268Z,20512
2019-03-06T08:42:41.425Z,21216
2019-03-06T08:43:51.568Z,20928
2019-03-06T08:45:01.703Z,20224
2019-03-06T08:46:11.846Z,20480
2019-03-06T08:47:21.985Z,20992
2019-03-06T08:48:32.124Z,21408
2019-03-06T08:49:42.271Z,19904
2019-03-06T08:50:52.463Z,18016
2019-03-06T08:52:02.582Z,19520
2019-03-06T08:53:12.708Z,17600
2019-03-06T08:54:22.848Z,17632
2019-03-06T08:55:32.993Z,17536
2019-03-06T08:56:43.133Z,17376
2019-03-06T08:57:52.992Z,16672
2019-03-06T08:59:03.131Z,21376
2019-03-06T09:00:13.562Z,24000
2019-03-06T09:01:24.396Z,23040
2019-03-06T09:02:35.160Z,20800
2019-03-06T09:03:45.317Z,22304
2019-03-06T09:04:55.442Z,22016
2019-03-06T09:06:05.567Z,21248
2019-03-06T09:07:15.685Z,20576
2019-03-06T09:08:25.820Z,21792
2019-03-06T09:09:35.970Z,23072
2019-03-06T09:10:46.080Z,21984
2019-03-06T09:11:56.193Z,19264
2019-03-06T09:13:06.325Z,20128
2019-03-06T09:14:16.459Z,18912
2019-03-06T09:15:28.627Z,20352
2019-03-06T09:16:38.796Z,20672
2019-03-06T09:17:48.982Z,20960
2019-03-06T09:18:59.123Z,20928
2019-03-06T09:20:09.279Z,21248
2019-03-06T09:21:19.391Z,19328
2019-03-06T09:22:29.331Z,17920
2019-03-06T09:23:39.472Z,21600
2019-03-06T09:24:49.608Z,21280
2019-03-06T09:25:59.782Z,20832
2019-03-06T09:27:09.935Z,19872
2019-03-06T09:28:20.672Z,20736
2019-03-06T09:29:31.435Z,20064
2019-03-06T09:30:41.975Z,19072
2019-03-06T09:31:51.975Z,18272
2019-03-06T09:33:02.333Z,17728
2019-03-06T09:34:12.464Z,18368
2019-03-06T09:35:22.606Z,19936
2019-03-06T09:36:32.502Z,19200
2019-03-06T09:37:42.633Z,17760
2019-03-06T09:38:52.764Z,19296
2019-03-06T09:40:02.890Z,21952
2019-03-06T09:41:14.006Z,22720
2019-03-06T09:42:25.800Z,22080
2019-03-06T09:43:35.594Z,20960
2019-03-06T09:44:45.727Z,20672
2019-03-06T09:45:55.869Z,20256
2019-03-06T09:47:06.024Z,20960
2019-03-06T09:48:17.632Z,21504
2019-03-06T09:49:27.846Z,21248
2019-03-06T09:50:37.994Z,21792
2019-03-06T09:51:48.117Z,22240
2019-03-06T09:52:58.267Z,24928
2019-03-06T09:54:08.423Z,29504
2019-03-06T09:55:18.579Z,31424
2019-03-06T09:56:28.740Z,33632
2019-03-06T09:57:39.163Z,33216
2019-03-06T09:58:49.981Z,34144
2019-03-06T10:00:00.612Z,36608
2019-03-06T10:01:10.936Z,37984
2019-03-06T10:02:21.114Z,39104
2019-03-06T10:03:31.454Z,38464
2019-03-06T10:04:41.576Z,37344
2019-03-06T10:05:51.741Z,36864
2019-03-06T10:07:01.648Z,35968
2019-03-06T10:08:11.526Z,35968
2019-03-06T10:09:21.645Z,37696
2019-03-06T10:10:31.535Z,40384
2019-03-06T10:11:41.665Z,40768
2019-03-06T10:12:54.899Z,40064
2019-03-06T10:14:04.795Z,39072
2019-03-06T10:15:14.927Z,23776
2019-03-06T10:16:25.744Z,46400
2019-03-06T10:17:37.487Z,49920
2019-03-06T10:18:47.644Z,51264
2019-03-06T10:19:57.812Z,49472
2019-03-06T10:21:08.116Z,52128
2019-03-06T10:22:18.272Z,53184
2019-03-06T10:23:28.452Z,50304
2019-03-06T10:24:38.374Z,48736
2019-03-06T10:25:48.583Z,48512
2019-03-06T10:26:59.270Z,48256
2019-03-06T10:28:15.725Z,48928
2019-03-06T10:29:35.252Z,46560
2019-03-06T10:33:14.853Z,46688
2019-03-06T10:34:25.078Z,48224
2019-03-06T10:35:35.613Z,49568
2019-03-06T10:36:45.862Z,46464
2019-03-06T10:37:56.177Z,46272
2019-03-06T10:39:06.474Z,48288
2019-03-06T10:40:16.691Z,47648
2019-03-06T10:41:26.659Z,46688
2019-03-06T10:42:36.612Z,49056
2019-03-06T10:43:54.885Z,47040
2019-03-06T10:45:05.109Z,41920
2019-03-06T10:46:15.324Z,43680
2019-03-06T10:47:25.532Z,45312
2019-03-06T10:48:35.837Z,46688
2019-03-06T10:49:46.341Z,47936
2019-03-06T10:50:56.542Z,47552
2019-03-06T10:52:07.410Z,50560
2019-03-06T10:53:17.820Z,52320
2019-03-06T10:54:28.018Z,50144
2019-03-06T10:55:38.660Z,51488
2019-03-06T10:56:48.879Z,47712
2019-03-06T10:57:59.086Z,48576
2019-03-06T10:59:09.345Z,50560
2019-03-06T11:00:19.617Z,51520
2019-03-06T11:01:30.325Z,50752
2019-03-06T11:02:40.562Z,52256
2019-03-06T11:03:50.952Z,51008
2019-03-06T11:05:01.137Z,51424
2019-03-06T11:06:11.326Z,50592
2019-03-06T11:07:21.550Z,49312
2019-03-06T11:08:32.416Z,51616
2019-03-06T11:09:42.684Z,50528
2019-03-06T11:10:52.904Z,46048
2019-03-06T11:12:03.584Z,51904
2019-03-06T11:13:15.869Z,51808
2019-03-06T11:14:26.095Z,50944
2019-03-06T11:15:36.310Z,48672
2019-03-06T11:16:47.112Z,45408
2019-03-06T11:17:58.358Z,48608
2019-03-06T11:19:08.921Z,50720
2019-03-06T11:20:19.085Z,47744
2019-03-06T11:21:29.264Z,48192
2019-03-06T11:22:39.437Z,46880
2019-03-06T11:23:49.594Z,46656
2019-03-06T11:24:59.758Z,48160
2019-03-06T11:26:09.945Z,46464
2019-03-06T11:27:20.140Z,46400
2019-03-06T11:28:30.341Z,48128
2019-03-06T11:29:40.299Z,49696
2019-03-06T11:30:50.550Z,45344
2019-03-06T11:32:00.773Z,45056
2019-03-06T11:33:11.392Z,44320
2019-03-06T11:34:21.632Z,43008
2019-03-06T11:35:31.813Z,45664
2019-03-06T11:36:42.067Z,41792
2019-03-06T11:37:52.274Z,40832
2019-03-06T11:39:02.434Z,37600
2019-03-06T11:40:12.595Z,38240
2019-03-06T11:41:22.513Z,37888
2019-03-06T11:42:32.887Z,42720
2019-03-06T11:43:43.798Z,42464
2019-03-06T11:44:54.540Z,43456
2019-03-06T11:46:05.494Z,41152
2019-03-06T11:47:15.786Z,37248
2019-03-06T11:48:25.698Z,36128
2019-03-06T11:49:35.863Z,38688
2019-03-06T11:50:48.512Z,41152
2019-03-06T11:51:58.716Z,43360
2019-03-06T11:53:08.891Z,42336
2019-03-06T11:54:19.060Z,44704
2019-03-06T11:55:29.281Z,47584
2019-03-06T11:56:39.467Z,45280
2019-03-06T11:57:49.670Z,43968
2019-03-06T11:58:59.876Z,48128
2019-03-06T12:00:10.098Z,43776
2019-03-06T12:01:20.713Z,41184
2019-03-06T12:02:30.666Z,42944
2019-03-06T12:03:40.887Z,42368
2019-03-06T12:04:51.079Z,40384
2019-03-06T12:06:01.291Z,34528
2019-03-06T12:07:11.500Z,35168
2019-03-06T12:08:21.717Z,35616
2019-03-06T12:09:31.294Z,35712
2019-03-06T12:10:41.494Z,41824
2019-03-06T12:11:51.728Z,22304
2019-03-06T12:13:01.948Z,23584
2019-03-06T12:14:12.133Z,36704
2019-03-06T12:15:22.341Z,38848
2019-03-06T12:16:41.434Z,43808
2019-03-06T12:17:52.243Z,42240
2019-03-06T12:19:02.459Z,39968
2019-03-06T12:20:15.778Z,36800
2019-03-06T12:21:26.005Z,37600
2019-03-06T12:22:35.829Z,35392
2019-03-06T12:23:46.679Z,33472
2019-03-06T12:24:56.853Z,32832
2019-03-06T12:26:07.045Z,35008
2019-03-06T12:27:17.214Z,34016
2019-03-06T12:28:27.421Z,30368
2019-03-06T12:29:37.596Z,29792
2019-03-06T12:30:47.950Z,27168
2019-03-06T12:31:58.941Z,29216
2019-03-06T12:33:09.810Z,33344
2019-03-06T12:34:23.161Z,34208
2019-03-06T12:35:33.767Z,34624
2019-03-06T12:36:43.921Z,33216
2019-03-06T12:37:54.661Z,29952
2019-03-06T12:39:04.805Z,28352
2019-03-06T12:40:19.827Z,24128
2019-03-06T12:41:29.973Z,20992
2019-03-06T12:42:39.803Z,20832
2019-03-06T12:43:51.999Z,17760
2019-03-06T12:45:02.163Z,17536
2019-03-06T12:46:12.328Z,18048
2019-03-06T12:47:31.244Z,16640
2019-03-06T12:48:42.374Z,14784
2019-03-06T12:49:52.535Z,14272
2019-03-06T12:51:04.433Z,13856
2019-03-06T12:52:14.391Z,14400
2019-03-06T12:53:24.545Z,15680
2019-03-06T12:54:34.683Z,16352
2019-03-06T12:55:44.583Z,15328
2019-03-06T12:56:54.762Z,15200
2019-03-06T12:58:06.994Z,14304
2019-03-06T12:59:17.869Z,14144
2019-03-06T13:00:28.780Z,13248
2019-03-06T13:01:39.328Z,12492
2019-03-06T13:02:49.699Z,12524
2019-03-06T13:03:59.829Z,13116
2019-03-06T13:05:09.977Z,14368
